Whidbey Island Naval Air Station /Ault Field/ Airport
KNUW : now visible

Airfield :











YOU CAN JOIN US ON...

 
LOGIN :

Register | Disclaimer

   EN    FR    IT 

 









Legend :    VFR   Marginal VFR   IFR   Intensive IFR   Very Intensive IFR
Visi :
Ceiling :
>= 8 km
>= 3000ft
5 to 8 km
1000 to 3000 ft
1500m to 5 km
500 to 1000 ft
800 to 1500m
200 to 500 ft
< 800m
< 200 ft
Symbols :   Thunderstorms  Fog  Heavy snow  Heavy precipitations  Wind > 20 kt






- Airport Elevation : 47 ft


KNUW - Whidbey Island Naval Air Station /Ault Field/

CURRENT METAR :
  • 092256Z 27006KT 10SM FEW035 SCT250 14/06 A3014 RMK AO2 SLP207 T01390061

EXPIRED METARs :
  • 092156Z 28004KT 10SM FEW030 SCT180 SCT250 14/06 A3016 RMK AO2 SLP212 T01390056
  • 092056Z 26007KT 10SM FEW170 SCT250 14/06 A3018 RMK AO2 SLP219 T01390061 58016
  • 091956Z 25007KT 10SM FEW150 BKN250 14/06 A3020 RMK SLP225 T01390061

TAF TAF KNUW
Valid from the 09 at 23:00 until the 10 at 23:00 UTC


0923/1023 VRB05KT 9999 FEW035 SCT250 QNH3010INS
TEMPO 0923/1005 27009KT SCT150 BKN250
FM101400 VRB06KT 9999 SCT030 BKN050 BKN100 BKN250 QNH3006INS
TEMPO 1018/1023 25008KT BKN028 BKN035 OVC250 T15/0923Z T04/1012Z FS30046



MET'MAP, your aeronautical weather chart ! - Copyright ORBIFLY December 2007 - Disclaimer

ORBIFLY MET'MAP TEAM :

Programming & Development : Alexandra Zaïnal
Concept & original design : Baudouin d'Aumeries
Assistance for programming : Marc-Olivier Méhu
Technical & hardware support : Manuel Goepfert

Contact : metmap@orbifly.com




SOURCES & CREDITS :

   NOAA       Earth
Advisory